sensor_id;sensor_type;location;lat;lon;timestamp;temperature;humidity
1880;DHT22;49285;49.002;8.390;2022-08-19T00:01:51;24.00;99.90
1880;DHT22;49285;49.002;8.390;2022-08-19T00:04:19;24.00;99.90
1880;DHT22;49285;49.002;8.390;2022-08-19T00:06:46;24.00;99.90
1880;DHT22;49285;49.002;8.390;2022-08-19T00:09:16;23.90;99.90
1880;DHT22;49285;49.002;8.390;2022-08-19T00:11:42;23.90;99.90
1880;DHT22;49285;49.002;8.390;2022-08-19T00:14:11;23.90;99.90
1880;DHT22;49285;49.002;8.390;2022-08-19T00:16:37;23.80;99.90
1880;DHT22;49285;49.002;8.390;2022-08-19T00:19:04;23.80;99.90
1880;DHT22;49285;49.002;8.390;2022-08-19T00:21:30;23.80;99.90
1880;DHT22;49285;49.002;8.390;2022-08-19T00:23:56;23.80;99.90
1880;DHT22;49285;49.002;8.390;2022-08-19T00:26:27;23.70;99.90
1880;DHT22;49285;49.002;8.390;2022-08-19T00:28:53;23.70;99.90
1880;DHT22;49285;49.002;8.390;2022-08-19T00:31:19;23.70;99.90
1880;DHT22;49285;49.002;8.390;2022-08-19T00:33:44;23.70;99.90
1880;DHT22;49285;49.002;8.390;2022-08-19T00:36:11;23.80;99.90
1880;DHT22;49285;49.002;8.390;2022-08-19T00:38:38;23.70;99.90
1880;DHT22;49285;49.002;8.390;2022-08-19T00:41:06;23.70;99.90
1880;DHT22;49285;49.002;8.390;2022-08-19T00:43:32;23.70;99.90
1880;DHT22;49285;49.002;8.390;2022-08-19T00:45:58;23.70;99.90
1880;DHT22;49285;49.002;8.390;2022-08-19T00:48:24;23.60;99.90
1880;DHT22;49285;49.002;8.390;2022-08-19T00:50:50;23.70;99.90
1880;DHT22;49285;49.002;8.390;2022-08-19T00:53:21;23.60;99.90
1880;DHT22;49285;49.002;8.390;2022-08-19T00:55:51;23.70;99.90
1880;DHT22;49285;49.002;8.390;2022-08-19T00:58:21;23.80;99.90
1880;DHT22;49285;49.002;8.390;2022-08-19T01:00:48;23.80;99.90
1880;DHT22;49285;49.002;8.390;2022-08-19T01:03:17;23.80;99.90
1880;DHT22;49285;49.002;8.390;2022-08-19T01:05:44;23.60;99.90
1880;DHT22;49285;49.002;8.390;2022-08-19T01:08:11;23.60;99.90
1880;DHT22;49285;49.002;8.390;2022-08-19T01:10:41;23.50;99.90
1880;DHT22;49285;49.002;8.390;2022-08-19T01:13:07;23.50;99.90
1880;DHT22;49285;49.002;8.390;2022-08-19T01:15:44;23.60;99.90
1880;DHT22;49285;49.002;8.390;2022-08-19T01:18:13;23.50;99.90
1880;DHT22;49285;49.002;8.390;2022-08-19T01:20:39;23.60;99.90
1880;DHT22;49285;49.002;8.390;2022-08-19T01:23:05;23.60;99.90
1880;DHT22;49285;49.002;8.390;2022-08-19T01:25:41;23.70;99.90
1880;DHT22;49285;49.002;8.390;2022-08-19T01:28:15;23.70;99.90
1880;DHT22;49285;49.002;8.390;2022-08-19T01:30:41;23.50;99.90
1880;DHT22;49285;49.002;8.390;2022-08-19T01:33:06;23.50;99.90
1880;DHT22;49285;49.002;8.390;2022-08-19T01:35:32;23.50;99.90
1880;DHT22;49285;49.002;8.390;2022-08-19T01:38:01;23.40;99.90
1880;DHT22;49285;49.002;8.390;2022-08-19T01:40:31;23.40;99.90
1880;DHT22;49285;49.002;8.390;2022-08-19T01:42:58;23.40;99.90
1880;DHT22;49285;49.002;8.390;2022-08-19T01:45:26;23.40;99.90
1880;DHT22;49285;49.002;8.390;2022-08-19T01:47:53;23.50;99.90
1880;DHT22;49285;49.002;8.390;2022-08-19T01:50:20;23.50;99.90
1880;DHT22;49285;49.002;8.390;2022-08-19T01:52:46;23.40;99.90
1880;DHT22;49285;49.002;8.390;2022-08-19T01:55:15;23.50;99.90
1880;DHT22;49285;49.002;8.390;2022-08-19T01:57:44;23.50;99.90
1880;DHT22;49285;49.002;8.390;2022-08-19T02:00:14;23.40;99.90
1880;DHT22;49285;49.002;8.390;2022-08-19T02:02:41;23.30;99.90
1880;DHT22;49285;49.002;8.390;2022-08-19T02:05:07;23.30;99.90
1880;DHT22;49285;49.002;8.390;2022-08-19T02:07:35;23.20;99.90
1880;DHT22;49285;49.002;8.390;2022-08-19T02:10:05;23.20;99.90
1880;DHT22;49285;49.002;8.390;2022-08-19T02:12:31;23.10;99.90
1880;DHT22;49285;49.002;8.390;2022-08-19T02:14:57;23.10;99.90
1880;DHT22;49285;49.002;8.390;2022-08-19T02:17:22;23.10;99.90
1880;DHT22;49285;49.002;8.390;2022-08-19T02:19:48;23.10;99.90
1880;DHT22;49285;49.002;8.390;2022-08-19T02:22:14;23.10;99.90
1880;DHT22;49285;49.002;8.390;2022-08-19T02:24:40;23.20;99.90
1880;DHT22;49285;49.002;8.390;2022-08-19T02:27:05;23.30;99.90
1880;DHT22;49285;49.002;8.390;2022-08-19T02:29:31;23.20;99.90
1880;DHT22;49285;49.002;8.390;2022-08-19T02:31:57;23.30;99.90
1880;DHT22;49285;49.002;8.390;2022-08-19T02:34:23;23.30;99.90
1880;DHT22;49285;49.002;8.390;2022-08-19T02:36:50;23.20;99.90
1880;DHT22;49285;49.002;8.390;2022-08-19T02:39:17;23.20;99.90
1880;DHT22;49285;49.002;8.390;2022-08-19T02:41:42;23.10;99.90
1880;DHT22;49285;49.002;8.390;2022-08-19T02:44:08;23.10;99.90
1880;DHT22;49285;49.002;8.390;2022-08-19T02:46:34;22.80;99.90
1880;DHT22;49285;49.002;8.390;2022-08-19T02:49:18;22.90;99.90
1880;DHT22;49285;49.002;8.390;2022-08-19T02:51:53;22.90;99.90
1880;DHT22;49285;49.002;8.390;2022-08-19T02:54:19;22.90;99.90
1880;DHT22;49285;49.002;8.390;2022-08-19T02:56:45;22.70;99.90
1880;DHT22;49285;49.002;8.390;2022-08-19T02:59:11;22.80;99.90
1880;DHT22;49285;49.002;8.390;2022-08-19T03:01:39;22.80;99.90
1880;DHT22;49285;49.002;8.390;2022-08-19T03:04:06;22.80;99.90
1880;DHT22;49285;49.002;8.390;2022-08-19T03:06:36;22.90;99.90
1880;DHT22;49285;49.002;8.390;2022-08-19T03:09:02;22.90;99.90
1880;DHT22;49285;49.002;8.390;2022-08-19T03:11:30;22.90;99.90
1880;DHT22;49285;49.002;8.390;2022-08-19T03:13:56;22.90;99.90
1880;DHT22;49285;49.002;8.390;2022-08-19T03:16:25;22.80;99.90
1880;DHT22;49285;49.002;8.390;2022-08-19T03:18:52;22.90;99.90
1880;DHT22;49285;49.002;8.390;2022-08-19T03:21:22;23.00;99.90
1880;DHT22;49285;49.002;8.390;2022-08-19T03:23:49;23.00;99.90
1880;DHT22;49285;49.002;8.390;2022-08-19T03:26:16;23.10;99.90
1880;DHT22;49285;49.002;8.390;2022-08-19T03:28:43;23.10;99.90
1880;DHT22;49285;49.002;8.390;2022-08-19T03:31:13;23.10;99.90
1880;DHT22;49285;49.002;8.390;2022-08-19T03:33:39;22.90;99.90
1880;DHT22;49285;49.002;8.390;2022-08-19T03:36:07;22.90;99.90
1880;DHT22;49285;49.002;8.390;2022-08-19T03:38:42;22.90;99.90
1880;DHT22;49285;49.002;8.390;2022-08-19T03:41:13;22.90;99.90
1880;DHT22;49285;49.002;8.390;2022-08-19T03:43:41;22.90;99.90
1880;DHT22;49285;49.002;8.390;2022-08-19T03:46:10;22.70;99.90
1880;DHT22;49285;49.002;8.390;2022-08-19T03:48:38;22.70;99.90
1880;DHT22;49285;49.002;8.390;2022-08-19T03:51:05;22.80;99.90
1880;DHT22;49285;49.002;8.390;2022-08-19T03:53:33;22.90;99.90
1880;DHT22;49285;49.002;8.390;2022-08-19T03:55:59;22.70;99.90
1880;DHT22;49285;49.002;8.390;2022-08-19T03:58:26;22.70;99.90
1880;DHT22;49285;49.002;8.390;2022-08-19T04:00:56;22.70;99.90
1880;DHT22;49285;49.002;8.390;2022-08-19T04:03:23;22.70;99.90
1880;DHT22;49285;49.002;8.390;2022-08-19T04:05:49;22.80;99.90
1880;DHT22;49285;49.002;8.390;2022-08-19T04:08:15;22.80;99.90
1880;DHT22;49285;49.002;8.390;2022-08-19T04:10:44;22.90;99.90
1880;DHT22;49285;49.002;8.390;2022-08-19T04:13:10;22.80;99.90
1880;DHT22;49285;49.002;8.390;2022-08-19T04:15:40;22.90;99.90
1880;DHT22;49285;49.002;8.390;2022-08-19T04:18:07;22.90;99.90
1880;DHT22;49285;49.002;8.390;2022-08-19T04:20:39;22.80;99.90
1880;DHT22;49285;49.002;8.390;2022-08-19T04:23:05;22.80;99.90
1880;DHT22;49285;49.002;8.390;2022-08-19T04:25:36;22.70;99.90
1880;DHT22;49285;49.002;8.390;2022-08-19T04:28:02;22.60;99.90
1880;DHT22;49285;49.002;8.390;2022-08-19T04:30:28;22.60;99.90
1880;DHT22;49285;49.002;8.390;2022-08-19T04:32:53;22.60;99.90
1880;DHT22;49285;49.002;8.390;2022-08-19T04:35:19;22.50;99.90
1880;DHT22;49285;49.002;8.390;2022-08-19T04:37:45;22.40;99.90
1880;DHT22;49285;49.002;8.390;2022-08-19T04:40:10;22.40;99.90
1880;DHT22;49285;49.002;8.390;2022-08-19T04:42:54;22.50;99.90
1880;DHT22;49285;49.002;8.390;2022-08-19T04:45:21;22.50;99.90
1880;DHT22;49285;49.002;8.390;2022-08-19T04:47:47;22.60;99.90
1880;DHT22;49285;49.002;8.390;2022-08-19T04:50:13;22.40;99.90
1880;DHT22;49285;49.002;8.390;2022-08-19T04:52:39;22.40;99.90
1880;DHT22;49285;49.002;8.390;2022-08-19T04:55:11;22.50;99.90
1880;DHT22;49285;49.002;8.390;2022-08-19T04:57:37;22.50;99.90
1880;DHT22;49285;49.002;8.390;2022-08-19T05:00:07;22.50;99.90
1880;DHT22;49285;49.002;8.390;2022-08-19T05:02:33;22.60;99.90
1880;DHT22;49285;49.002;8.390;2022-08-19T05:04:59;22.60;99.90
1880;DHT22;49285;49.002;8.390;2022-08-19T05:07:27;22.60;99.90
1880;DHT22;49285;49.002;8.390;2022-08-19T05:09:54;22.70;99.90
1880;DHT22;49285;49.002;8.390;2022-08-19T05:12:20;22.80;99.90
1880;DHT22;49285;49.002;8.390;2022-08-19T05:14:46;22.80;99.90
1880;DHT22;49285;49.002;8.390;2022-08-19T05:17:13;22.90;99.90
1880;DHT22;49285;49.002;8.390;2022-08-19T05:19:38;22.90;99.90
1880;DHT22;49285;49.002;8.390;2022-08-19T05:22:22;22.80;99.90
1880;DHT22;49285;49.002;8.390;2022-08-19T05:25:12;22.80;99.90
1880;DHT22;49285;49.002;8.390;2022-08-19T05:27:38;22.90;99.90
1880;DHT22;49285;49.002;8.390;2022-08-19T05:30:04;22.80;99.90
1880;DHT22;49285;49.002;8.390;2022-08-19T05:32:30;22.80;99.90
1880;DHT22;49285;49.002;8.390;2022-08-19T05:34:56;22.80;99.90
1880;DHT22;49285;49.002;8.390;2022-08-19T05:37:22;22.90;99.90
1880;DHT22;49285;49.002;8.390;2022-08-19T05:39:48;22.90;99.90
1880;DHT22;49285;49.002;8.390;2022-08-19T05:42:15;22.90;99.90
1880;DHT22;49285;49.002;8.390;2022-08-19T05:44:43;22.90;99.90
1880;DHT22;49285;49.002;8.390;2022-08-19T05:47:13;22.90;99.90
1880;DHT22;49285;49.002;8.390;2022-08-19T05:49:40;23.00;99.90
1880;DHT22;49285;49.002;8.390;2022-08-19T05:52:09;22.90;99.90
1880;DHT22;49285;49.002;8.390;2022-08-19T05:54:49;23.00;99.90
1880;DHT22;49285;49.002;8.390;2022-08-19T05:57:16;23.00;99.90
1880;DHT22;49285;49.002;8.390;2022-08-19T05:59:42;23.10;99.90
1880;DHT22;49285;49.002;8.390;2022-08-19T06:02:09;23.10;99.90
1880;DHT22;49285;49.002;8.390;2022-08-19T06:04:34;23.10;99.90
1880;DHT22;49285;49.002;8.390;2022-08-19T06:07:00;23.00;99.90
1880;DHT22;49285;49.002;8.390;2022-08-19T06:09:27;23.00;99.90
1880;DHT22;49285;49.002;8.390;2022-08-19T06:11:55;23.10;99.90
1880;DHT22;49285;49.002;8.390;2022-08-19T06:14:25;23.10;99.90
1880;DHT22;49285;49.002;8.390;2022-08-19T06:16:51;23.10;99.90
1880;DHT22;49285;49.002;8.390;2022-08-19T06:19:19;23.00;99.90
1880;DHT22;49285;49.002;8.390;2022-08-19T06:21:47;23.00;99.90
1880;DHT22;49285;49.002;8.390;2022-08-19T06:24:15;23.10;99.90
1880;DHT22;49285;49.002;8.390;2022-08-19T06:26:43;23.20;99.90
1880;DHT22;49285;49.002;8.390;2022-08-19T06:29:11;23.20;99.90
1880;DHT22;49285;49.002;8.390;2022-08-19T06:31:40;23.20;99.90
1880;DHT22;49285;49.002;8.390;2022-08-19T06:34:06;23.20;99.90
1880;DHT22;49285;49.002;8.390;2022-08-19T06:36:37;23.20;99.90
1880;DHT22;49285;49.002;8.390;2022-08-19T06:39:10;23.20;99.90
1880;DHT22;49285;49.002;8.390;2022-08-19T06:41:39;23.10;99.90
1880;DHT22;49285;49.002;8.390;2022-08-19T06:44:05;23.10;99.90
1880;DHT22;49285;49.002;8.390;2022-08-19T06:46:31;23.10;99.90
1880;DHT22;49285;49.002;8.390;2022-08-19T06:48:57;23.20;99.90
1880;DHT22;49285;49.002;8.390;2022-08-19T06:51:23;23.20;99.90
1880;DHT22;49285;49.002;8.390;2022-08-19T06:53:51;23.20;99.90
1880;DHT22;49285;49.002;8.390;2022-08-19T06:56:20;23.20;99.90
1880;DHT22;49285;49.002;8.390;2022-08-19T06:58:46;23.30;99.90
1880;DHT22;49285;49.002;8.390;2022-08-19T07:01:12;23.20;99.90
1880;DHT22;49285;49.002;8.390;2022-08-19T07:03:38;23.20;99.90
1880;DHT22;49285;49.002;8.390;2022-08-19T07:06:11;23.20;99.90
1880;DHT22;49285;49.002;8.390;2022-08-19T07:08:37;23.20;99.90
1880;DHT22;49285;49.002;8.390;2022-08-19T07:11:09;23.10;99.90
1880;DHT22;49285;49.002;8.390;2022-08-19T07:13:36;23.30;99.90
1880;DHT22;49285;49.002;8.390;2022-08-19T07:16:15;23.30;99.90
1880;DHT22;49285;49.002;8.390;2022-08-19T07:18:41;23.40;99.90
1880;DHT22;49285;49.002;8.390;2022-08-19T07:21:15;23.40;99.90
1880;DHT22;49285;49.002;8.390;2022-08-19T07:23:42;23.40;99.90
1880;DHT22;49285;49.002;8.390;2022-08-19T07:26:17;23.40;99.90
1880;DHT22;49285;49.002;8.390;2022-08-19T07:28:44;23.40;99.90
1880;DHT22;49285;49.002;8.390;2022-08-19T07:31:12;23.40;99.90
1880;DHT22;49285;49.002;8.390;2022-08-19T07:33:39;23.50;99.90
1880;DHT22;49285;49.002;8.390;2022-08-19T07:36:07;23.50;99.90
1880;DHT22;49285;49.002;8.390;2022-08-19T07:38:34;23.70;99.90
1880;DHT22;49285;49.002;8.390;2022-08-19T07:41:00;23.70;99.90
1880;DHT22;49285;49.002;8.390;2022-08-19T07:43:26;23.80;99.90
1880;DHT22;49285;49.002;8.390;2022-08-19T07:45:53;23.80;99.90
1880;DHT22;49285;49.002;8.390;2022-08-19T07:48:23;23.90;99.90
1880;DHT22;49285;49.002;8.390;2022-08-19T07:50:51;24.00;99.90
1880;DHT22;49285;49.002;8.390;2022-08-19T07:53:17;24.10;99.90
1880;DHT22;49285;49.002;8.390;2022-08-19T07:55:42;24.20;99.90
1880;DHT22;49285;49.002;8.390;2022-08-19T07:58:08;24.10;99.90
1880;DHT22;49285;49.002;8.390;2022-08-19T08:00:34;24.20;99.90
1880;DHT22;49285;49.002;8.390;2022-08-19T08:03:01;24.40;99.90
1880;DHT22;49285;49.002;8.390;2022-08-19T08:05:26;24.40;99.90
1880;DHT22;49285;49.002;8.390;2022-08-19T08:08:11;24.40;99.90
1880;DHT22;49285;49.002;8.390;2022-08-19T08:10:56;24.40;99.90
1880;DHT22;49285;49.002;8.390;2022-08-19T08:13:21;24.40;99.90
1880;DHT22;49285;49.002;8.390;2022-08-19T08:15:47;24.40;99.90
1880;DHT22;49285;49.002;8.390;2022-08-19T08:18:12;24.40;99.90
1880;DHT22;49285;49.002;8.390;2022-08-19T08:20:39;24.60;99.90
1880;DHT22;49285;49.002;8.390;2022-08-19T08:23:04;24.70;99.90
1880;DHT22;49285;49.002;8.390;2022-08-19T08:25:50;24.80;99.90
1880;DHT22;49285;49.002;8.390;2022-08-19T08:28:17;24.80;99.90
1880;DHT22;49285;49.002;8.390;2022-08-19T08:30:43;25.00;99.90
1880;DHT22;49285;49.002;8.390;2022-08-19T08:33:10;25.20;99.90
1880;DHT22;49285;49.002;8.390;2022-08-19T08:35:36;25.20;99.90
1880;DHT22;49285;49.002;8.390;2022-08-19T08:38:03;25.30;99.90
1880;DHT22;49285;49.002;8.390;2022-08-19T08:40:39;25.50;99.90
1880;DHT22;49285;49.002;8.390;2022-08-19T08:43:27;25.60;99.90
1880;DHT22;49285;49.002;8.390;2022-08-19T08:46:05;25.70;99.90
1880;DHT22;49285;49.002;8.390;2022-08-19T08:48:37;25.80;99.90
1880;DHT22;49285;49.002;8.390;2022-08-19T08:51:09;25.90;99.90
1880;DHT22;49285;49.002;8.390;2022-08-19T08:53:37;25.90;99.90
1880;DHT22;49285;49.002;8.390;2022-08-19T08:56:06;25.90;99.90
1880;DHT22;49285;49.002;8.390;2022-08-19T09:01:11;25.90;99.90
1880;DHT22;49285;49.002;8.390;2022-08-19T09:03:39;25.80;99.90
1880;DHT22;49285;49.002;8.390;2022-08-19T09:06:24;25.90;99.90
1880;DHT22;49285;49.002;8.390;2022-08-19T09:17:08;26.20;99.90
1880;DHT22;49285;49.002;8.390;2022-08-19T09:19:36;26.20;99.90
1880;DHT22;49285;49.002;8.390;2022-08-19T09:22:01;26.20;99.90
1880;DHT22;49285;49.002;8.390;2022-08-19T09:24:27;26.20;99.90
1880;DHT22;49285;49.002;8.390;2022-08-19T09:26:53;26.20;99.90
1880;DHT22;49285;49.002;8.390;2022-08-19T09:29:19;26.30;99.90
1880;DHT22;49285;49.002;8.390;2022-08-19T09:31:46;26.30;99.90
1880;DHT22;49285;49.002;8.390;2022-08-19T09:34:11;26.30;99.90
1880;DHT22;49285;49.002;8.390;2022-08-19T09:36:37;26.30;99.90
1880;DHT22;49285;49.002;8.390;2022-08-19T09:39:04;26.30;99.90
1880;DHT22;49285;49.002;8.390;2022-08-19T09:41:31;26.30;99.90
1880;DHT22;49285;49.002;8.390;2022-08-19T09:43:58;26.30;99.90
1880;DHT22;49285;49.002;8.390;2022-08-19T09:46:26;26.30;99.90
1880;DHT22;49285;49.002;8.390;2022-08-19T09:48:53;26.20;99.90
1880;DHT22;49285;49.002;8.390;2022-08-19T09:51:24;26.20;99.90
1880;DHT22;49285;49.002;8.390;2022-08-19T09:53:51;26.30;99.90
1880;DHT22;49285;49.002;8.390;2022-08-19T09:56:21;26.40;99.90
1880;DHT22;49285;49.002;8.390;2022-08-19T09:58:47;26.50;99.90
1880;DHT22;49285;49.002;8.390;2022-08-19T10:01:24;26.60;99.90
1880;DHT22;49285;49.002;8.390;2022-08-19T10:03:52;26.70;99.90
1880;DHT22;49285;49.002;8.390;2022-08-19T10:06:21;26.80;99.90
1880;DHT22;49285;49.002;8.390;2022-08-19T10:08:47;26.90;99.90
1880;DHT22;49285;49.002;8.390;2022-08-19T10:11:13;26.90;99.90
1880;DHT22;49285;49.002;8.390;2022-08-19T10:13:42;27.00;99.90
1880;DHT22;49285;49.002;8.390;2022-08-19T10:16:11;27.10;99.90
1880;DHT22;49285;49.002;8.390;2022-08-19T10:18:37;27.20;99.90
1880;DHT22;49285;49.002;8.390;2022-08-19T10:21:08;27.30;99.90
1880;DHT22;49285;49.002;8.390;2022-08-19T10:23:37;27.30;99.90
1880;DHT22;49285;49.002;8.390;2022-08-19T10:26:05;27.40;99.90
1880;DHT22;49285;49.002;8.390;2022-08-19T10:28:34;27.60;99.90
1880;DHT22;49285;49.002;8.390;2022-08-19T10:31:07;27.70;99.90
1880;DHT22;49285;49.002;8.390;2022-08-19T10:33:34;27.90;99.90
1880;DHT22;49285;49.002;8.390;2022-08-19T10:36:12;28.00;99.90
1880;DHT22;49285;49.002;8.390;2022-08-19T10:38:41;28.00;99.90
1880;DHT22;49285;49.002;8.390;2022-08-19T10:41:17;27.90;99.90
1880;DHT22;49285;49.002;8.390;2022-08-19T10:43:44;27.80;99.90
1880;DHT22;49285;49.002;8.390;2022-08-19T10:46:12;27.80;99.90
1880;DHT22;49285;49.002;8.390;2022-08-19T10:48:38;27.80;99.90
1880;DHT22;49285;49.002;8.390;2022-08-19T10:51:04;27.80;99.90
1880;DHT22;49285;49.002;8.390;2022-08-19T10:53:49;27.90;99.90
1880;DHT22;49285;49.002;8.390;2022-08-19T10:56:15;28.20;99.90
1880;DHT22;49285;49.002;8.390;2022-08-19T10:58:59;28.20;99.90
1880;DHT22;49285;49.002;8.390;2022-08-19T11:01:26;28.40;99.90
1880;DHT22;49285;49.002;8.390;2022-08-19T11:03:51;28.40;99.90
1880;DHT22;49285;49.002;8.390;2022-08-19T11:06:18;28.60;99.90
1880;DHT22;49285;49.002;8.390;2022-08-19T11:08:44;28.80;99.90
1880;DHT22;49285;49.002;8.390;2022-08-19T11:11:11;28.80;99.90
1880;DHT22;49285;49.002;8.390;2022-08-19T11:13:39;28.90;99.90
1880;DHT22;49285;49.002;8.390;2022-08-19T11:16:10;29.00;99.90
1880;DHT22;49285;49.002;8.390;2022-08-19T11:18:44;29.00;99.90
1880;DHT22;49285;49.002;8.390;2022-08-19T11:21:32;29.00;99.90
1880;DHT22;49285;49.002;8.390;2022-08-19T11:24:05;29.10;99.80
1880;DHT22;49285;49.002;8.390;2022-08-19T11:26:32;29.10;99.50
1880;DHT22;49285;49.002;8.390;2022-08-19T11:28:59;29.10;99.20
1880;DHT22;49285;49.002;8.390;2022-08-19T11:31:28;29.00;99.10
1880;DHT22;49285;49.002;8.390;2022-08-19T11:33:56;28.90;99.20
1880;DHT22;49285;49.002;8.390;2022-08-19T11:36:22;28.90;99.40
1880;DHT22;49285;49.002;8.390;2022-08-19T11:38:49;28.70;99.10
1880;DHT22;49285;49.002;8.390;2022-08-19T11:41:16;28.60;99.40
1880;DHT22;49285;49.002;8.390;2022-08-19T11:43:42;28.50;99.20
1880;DHT22;49285;49.002;8.390;2022-08-19T11:46:10;28.50;99.50
1880;DHT22;49285;49.002;8.390;2022-08-19T11:48:37;28.60;99.50
1880;DHT22;49285;49.002;8.390;2022-08-19T11:51:06;28.70;99.10
1880;DHT22;49285;49.002;8.390;2022-08-19T11:53:33;28.70;98.80
1880;DHT22;49285;49.002;8.390;2022-08-19T11:55:59;28.90;98.70
1880;DHT22;49285;49.002;8.390;2022-08-19T11:58:25;29.20;98.40
1880;DHT22;49285;49.002;8.390;2022-08-19T12:00:51;29.40;97.10
1880;DHT22;49285;49.002;8.390;2022-08-19T12:03:18;29.00;97.10
1880;DHT22;49285;49.002;8.390;2022-08-19T12:05:45;29.10;97.60
1880;DHT22;49285;49.002;8.390;2022-08-19T12:08:11;29.50;96.30
1880;DHT22;49285;49.002;8.390;2022-08-19T12:10:38;30.00;95.10
1880;DHT22;49285;49.002;8.390;2022-08-19T12:13:04;30.50;93.60
1880;DHT22;49285;49.002;8.390;2022-08-19T12:15:38;30.30;93.00
1880;DHT22;49285;49.002;8.390;2022-08-19T12:18:07;30.00;92.90
1880;DHT22;49285;49.002;8.390;2022-08-19T12:20:38;29.60;93.20
1880;DHT22;49285;49.002;8.390;2022-08-19T12:23:06;29.50;93.70
1880;DHT22;49285;49.002;8.390;2022-08-19T12:25:32;29.30;93.90
1880;DHT22;49285;49.002;8.390;2022-08-19T12:28:00;29.20;94.30
1880;DHT22;49285;49.002;8.390;2022-08-19T12:30:26;29.10;94.50
1880;DHT22;49285;49.002;8.390;2022-08-19T12:32:51;29.10;94.60
1880;DHT22;49285;49.002;8.390;2022-08-19T12:35:17;28.90;94.90
1880;DHT22;49285;49.002;8.390;2022-08-19T12:37:45;28.80;95.50
1880;DHT22;49285;49.002;8.390;2022-08-19T12:40:11;28.60;95.90
1880;DHT22;49285;49.002;8.390;2022-08-19T12:42:38;28.60;95.80
1880;DHT22;49285;49.002;8.390;2022-08-19T12:45:14;28.50;95.00
1880;DHT22;49285;49.002;8.390;2022-08-19T12:47:40;28.50;94.90
1880;DHT22;49285;49.002;8.390;2022-08-19T12:50:06;28.70;94.90
1880;DHT22;49285;49.002;8.390;2022-08-19T12:52:34;29.10;94.60
1880;DHT22;49285;49.002;8.390;2022-08-19T12:55:04;30.10;93.50
1880;DHT22;49285;49.002;8.390;2022-08-19T12:57:30;31.00;90.70
1880;DHT22;49285;49.002;8.390;2022-08-19T13:02:33;32.50;83.60
1880;DHT22;49285;49.002;8.390;2022-08-19T13:05:00;33.20;80.00
1880;DHT22;49285;49.002;8.390;2022-08-19T13:07:25;33.60;75.80
1880;DHT22;49285;49.002;8.390;2022-08-19T13:09:52;33.90;73.50
1880;DHT22;49285;49.002;8.390;2022-08-19T13:12:18;33.90;69.90
1880;DHT22;49285;49.002;8.390;2022-08-19T13:14:45;33.60;66.50
1880;DHT22;49285;49.002;8.390;2022-08-19T13:17:16;33.00;68.30
1880;DHT22;49285;49.002;8.390;2022-08-19T13:19:42;33.70;68.10
1880;DHT22;49285;49.002;8.390;2022-08-19T13:22:07;34.10;65.30
1880;DHT22;49285;49.002;8.390;2022-08-19T13:24:33;33.90;64.90
1880;DHT22;49285;49.002;8.390;2022-08-19T13:27:00;34.60;64.50
1880;DHT22;49285;49.002;8.390;2022-08-19T13:29:26;35.50;60.40
1880;DHT22;49285;49.002;8.390;2022-08-19T13:32:10;36.80;55.90
1880;DHT22;49285;49.002;8.390;2022-08-19T13:34:54;38.10;52.10
1880;DHT22;49285;49.002;8.390;2022-08-19T13:37:20;38.90;49.00
1880;DHT22;49285;49.002;8.390;2022-08-19T13:40:06;40.10;47.80
1880;DHT22;49285;49.002;8.390;2022-08-19T13:42:39;40.60;43.60
1880;DHT22;49285;49.002;8.390;2022-08-19T13:45:05;41.00;43.10
1880;DHT22;49285;49.002;8.390;2022-08-19T13:47:32;40.90;41.80
1880;DHT22;49285;49.002;8.390;2022-08-19T13:50:00;41.20;40.90
1880;DHT22;49285;49.002;8.390;2022-08-19T13:52:26;41.00;40.50
1880;DHT22;49285;49.002;8.390;2022-08-19T13:54:51;41.10;40.10
1880;DHT22;49285;49.002;8.390;2022-08-19T13:57:17;41.00;39.10
1880;DHT22;49285;49.002;8.390;2022-08-19T13:59:42;40.60;39.60
1880;DHT22;49285;49.002;8.390;2022-08-19T14:02:08;39.90;40.10
1880;DHT22;49285;49.002;8.390;2022-08-19T14:04:34;39.70;40.50
1880;DHT22;49285;49.002;8.390;2022-08-19T14:06:59;38.80;40.40
1880;DHT22;49285;49.002;8.390;2022-08-19T14:09:25;37.80;41.00
1880;DHT22;49285;49.002;8.390;2022-08-19T14:11:50;37.10;41.70
1880;DHT22;49285;49.002;8.390;2022-08-19T14:14:16;36.30;42.70
1880;DHT22;49285;49.002;8.390;2022-08-19T14:16:42;35.30;43.50
1880;DHT22;49285;49.002;8.390;2022-08-19T14:19:08;34.80;44.80
1880;DHT22;49285;49.002;8.390;2022-08-19T14:21:33;34.50;45.90
1880;DHT22;49285;49.002;8.390;2022-08-19T14:24:00;34.10;46.80
1880;DHT22;49285;49.002;8.390;2022-08-19T14:26:26;33.70;47.80
1880;DHT22;49285;49.002;8.390;2022-08-19T14:28:52;33.40;48.10
1880;DHT22;49285;49.002;8.390;2022-08-19T14:31:19;33.30;48.50
1880;DHT22;49285;49.002;8.390;2022-08-19T14:33:46;32.90;48.90
1880;DHT22;49285;49.002;8.390;2022-08-19T14:36:12;32.80;49.60
1880;DHT22;49285;49.002;8.390;2022-08-19T14:38:38;32.60;49.50
1880;DHT22;49285;49.002;8.390;2022-08-19T14:41:10;32.70;49.50
1880;DHT22;49285;49.002;8.390;2022-08-19T14:43:36;32.70;49.70
1880;DHT22;49285;49.002;8.390;2022-08-19T14:46:02;32.70;49.80
1880;DHT22;49285;49.002;8.390;2022-08-19T14:48:27;32.70;49.60
1880;DHT22;49285;49.002;8.390;2022-08-19T14:50:53;32.50;50.00
1880;DHT22;49285;49.002;8.390;2022-08-19T14:53:19;32.40;50.30
1880;DHT22;49285;49.002;8.390;2022-08-19T14:55:45;32.40;50.40
1880;DHT22;49285;49.002;8.390;2022-08-19T14:58:12;32.20;50.30
1880;DHT22;49285;49.002;8.390;2022-08-19T15:00:38;32.10;50.60
1880;DHT22;49285;49.002;8.390;2022-08-19T15:03:04;31.90;50.90
1880;DHT22;49285;49.002;8.390;2022-08-19T15:05:29;31.70;51.70
1880;DHT22;49285;49.002;8.390;2022-08-19T15:07:55;31.50;51.50
1880;DHT22;49285;49.002;8.390;2022-08-19T15:10:22;31.30;52.20
1880;DHT22;49285;49.002;8.390;2022-08-19T15:12:49;31.20;52.70
1880;DHT22;49285;49.002;8.390;2022-08-19T15:15:16;31.00;54.10
1880;DHT22;49285;49.002;8.390;2022-08-19T15:17:43;30.80;54.60
1880;DHT22;49285;49.002;8.390;2022-08-19T15:20:14;30.50;55.40
1880;DHT22;49285;49.002;8.390;2022-08-19T15:22:40;30.40;56.10
1880;DHT22;49285;49.002;8.390;2022-08-19T15:25:08;30.10;56.60
1880;DHT22;49285;49.002;8.390;2022-08-19T15:27:34;29.90;57.10
1880;DHT22;49285;49.002;8.390;2022-08-19T15:30:00;29.80;57.50
1880;DHT22;49285;49.002;8.390;2022-08-19T15:32:25;29.70;57.80
1880;DHT22;49285;49.002;8.390;2022-08-19T15:34:53;29.70;58.60
1880;DHT22;49285;49.002;8.390;2022-08-19T15:37:19;29.80;58.60
1880;DHT22;49285;49.002;8.390;2022-08-19T15:39:47;29.80;58.00
1880;DHT22;49285;49.002;8.390;2022-08-19T15:42:13;29.80;58.30
1880;DHT22;49285;49.002;8.390;2022-08-19T15:44:38;29.80;56.70
1880;DHT22;49285;49.002;8.390;2022-08-19T15:47:04;29.70;56.70
1880;DHT22;49285;49.002;8.390;2022-08-19T15:49:30;29.60;56.00
1880;DHT22;49285;49.002;8.390;2022-08-19T15:51:55;29.60;55.80
1880;DHT22;49285;49.002;8.390;2022-08-19T15:54:22;29.60;55.80
1880;DHT22;49285;49.002;8.390;2022-08-19T15:56:49;29.60;55.80
1880;DHT22;49285;49.002;8.390;2022-08-19T15:59:35;29.60;55.40
1880;DHT22;49285;49.002;8.390;2022-08-19T16:02:22;29.60;55.60
1880;DHT22;49285;49.002;8.390;2022-08-19T16:05:10;29.60;55.70